Time;durP1;ratioP1;P1;durP2;ratioP2;P2;SDS_P1;SDS_P2;PMS_P1;PMS_P2;Temp;Humidity;BMP_temperature;BMP_pressure;BME280_temperature;BME280_humidity;BME280_pressure;Samples;Min_cycle;Max_cycle;Signal;HPM_P1;HPM_P2
2023/01/19 15:37:50;;;;;;;0.10;0.10;;;;;;;-146.24;43.39;46967.31;5113069;27;20411;-85
2023/01/19 15:40:30;;;;;;;0.00;0.00;;;;;;;-146.24;42.65;46919.34;5107922;28;20263;-87
2023/01/19 15:43:05;;;;;;;0.10;0.10;;;;;;;-146.24;42.13;46967.31;5106579;28;20218;-88
2023/01/19 15:45:38;;;;;;;0.00;0.00;;;;;;;-146.24;42.17;46992.25;5107250;28;20238;-88
2023/01/19 15:48:16;;;;;;;0.73;0.73;;;;;;;-146.24;42.27;46990.31;5107545;28;20231;-87
2023/01/19 15:50:47;;;;;;;0.00;0.00;;;;;;;-146.24;42.45;46965.38;5108936;28;20251;-87
2023/01/19 15:53:19;;;;;;;1.75;0.10;;;;;;;-146.24;43.01;46974.97;5110659;28;20232;-87
2023/01/19 15:56:02;;;;;;;0.40;0.20;;;;;;;-146.24;43.61;46980.72;5112646;28;20240;-86
2023/01/19 15:58:31;;;;;;;0.30;0.30;;;;;;;-146.24;43.50;46996.09;5111327;28;20221;-88
2023/01/19 16:01:04;;;;;;;0.00;0.00;;;;;;;-146.24;44.23;46971.16;5111634;28;20227;-86
2023/01/19 16:03:33;;;;;;;0.00;0.00;;;;;;;-146.24;44.59;46969.22;5113466;28;20250;-86
2023/01/19 16:06:06;;;;;;;0.10;0.10;;;;;;;-146.24;45.18;46978.81;5112390;28;20313;-86
2023/01/19 16:08:38;;;;;;;0.00;0.00;;;;;;;-146.24;45.88;47021.03;5112202;28;20254;-86
2023/01/19 16:11:12;;;;;;;0.52;0.52;;;;;;;-146.24;46.41;46940.44;5090378;28;20281;-87
2023/01/19 16:13:45;;;;;;;0.15;0.15;;;;;;;-146.24;47.42;46974.97;5092265;28;20350;-85
2023/01/19 16:16:20;;;;;;;0.00;0.00;;;;;;;-146.24;53.74;46961.53;5092436;28;20247;-84
2023/01/19 16:18:49;;;;;;;0.20;0.20;;;;;;;-146.24;61.56;46959.63;5088984;28;20215;-88
2023/01/19 16:21:37;;;;;;;0.00;0.00;;;;;;;-146.24;64.76;46948.13;5088288;28;20244;-88
2023/01/19 16:24:23;;;;;;;0.00;0.00;;;;;;;-146.24;71.14;46942.38;5087449;28;20227;-88
2023/01/19 16:26:54;;;;;;;3.03;0.27;;;;;;;-146.24;76.96;46951.97;5080305;28;20228;-86
2023/01/19 16:29:22;;;;;;;0.00;0.00;;;;;;;-146.24;82.96;46946.19;5088324;28;20312;-86
2023/01/19 16:31:54;;;;;;;0.20;0.20;;;;;;;-146.24;85.78;46951.97;5088983;28;20590;-87
2023/01/19 16:34:23;;;;;;;0.00;0.00;;;;;;;-146.24;89.35;46959.63;5090030;28;20218;-86
2023/01/19 16:36:51;;;;;;;0.10;0.10;;;;;;;-146.24;87.73;46969.22;5090987;28;20547;-87
2023/01/19 16:39:23;;;;;;;0.00;0.00;;;;;;;-146.24;83.84;46959.63;5089653;28;20240;-87
2023/01/19 16:41:51;;;;;;;0.00;0.00;;;;;;;-146.24;83.45;46953.88;5088047;28;20256;-88
2023/01/19 16:44:37;;;;;;;0.20;0.20;;;;;;;-146.24;89.04;46957.72;5087358;28;20669;-88
2023/01/19 16:47:05;;;;;;;0.00;0.00;;;;;;;-146.24;89.36;46957.72;5084821;28;20223;-86
2023/01/19 16:49:36;;;;;;;0.20;0.20;;;;;;;-146.24;93.35;46963.47;5081079;28;20236;-86
2023/01/19 16:52:06;;;;;;;0.63;0.30;;;;;;;-146.24;93.99;46925.09;5076811;28;20369;-87
2023/01/19 16:54:40;;;;;;;0.20;0.20;;;;;;;-146.24;96.50;46974.97;5073995;28;20235;-86
2023/01/19 16:57:09;;;;;;;0.00;0.00;;;;;;;-146.24;99.28;46948.13;5075397;28;20768;-87
2023/01/19 16:59:40;;;;;;;0.20;0.20;;;;;;;-146.24;99.31;46944.28;5074103;28;20223;-87
2023/01/19 17:02:10;;;;;;;0.20;0.20;;;;;;;-146.24;98.55;46969.22;5074883;28;20229;-86
2023/01/19 17:04:39;;;;;;;0.00;0.00;;;;;;;-146.24;99.80;46961.53;5074713;28;20635;-87
2023/01/19 17:07:18;;;;;;;0.10;0.10;;;;;;;-146.24;100.00;46998.00;5073955;28;20237;-86
2023/01/19 17:09:49;;;;;;;1.03;0.20;;;;;;;-146.24;100.00;46927.00;5074038;28;20292;-87
2023/01/19 17:12:17;;;;;;;0.37;0.37;;;;;;;-146.24;100.00;46946.19;5076959;28;20306;-87
2023/01/19 17:14:46;;;;;;;0.00;0.00;;;;;;;-146.24;100.00;46948.13;5077146;28;20203;-87
2023/01/19 17:17:16;;;;;;;8.73;0.50;;;;;;;-146.24;100.00;46971.16;5072033;28;20304;-88
2023/01/19 17:19:44;;;;;;;0.73;0.73;;;;;;;-146.24;99.81;47019.09;5072845;28;20283;-87
2023/01/19 17:22:24;;;;;;;0.07;0.07;;;;;;;-146.24;97.64;46955.78;5072630;28;20203;-88
2023/01/19 17:24:58;;;;;;;0.20;0.20;;;;;;;-146.24;98.27;46986.50;5072044;28;20207;-88
2023/01/19 17:27:29;;;;;;;0.10;0.00;;;;;;;-146.24;97.74;46944.28;5072683;28;20212;-88
2023/01/19 17:30:22;;;;;;;0.13;0.13;;;;;;;-146.24;99.53;46925.09;5072555;28;20206;-88
2023/01/19 17:32:52;;;;;;;0.93;0.40;;;;;;;-146.24;100.00;46944.28;5071976;28;20748;-88
2023/01/19 17:35:24;;;;;;;0.10;0.10;;;;;;;-146.24;100.00;46986.50;5070282;28;20234;-88
2023/01/19 17:37:55;;;;;;;0.20;0.20;;;;;;;-146.24;99.46;46944.28;5050785;28;20609;-89
2023/01/19 17:40:44;;;;;;;0.10;0.10;;;;;;;-146.24;100.00;46915.50;5054388;28;20223;-86
2023/01/19 17:43:14;;;;;;;0.33;0.33;;;;;;;-146.24;100.00;46932.78;5055009;28;20227;-88
2023/01/19 17:45:47;;;;;;;0.00;0.00;;;;;;;-146.24;100.00;46930.84;5054825;28;20721;-88
2023/01/19 17:48:16;;;;;;;0.53;0.53;;;;;;;-146.24;100.00;46971.16;5069379;28;20230;-88
2023/01/19 17:50:44;;;;;;;0.97;0.77;;;;;;;-146.24;100.00;46921.25;5070380;28;20226;-86
2023/01/19 17:53:16;;;;;;;0.60;0.60;;;;;;;-146.24;100.00;46982.66;5069953;28;20222;-85
2023/01/19 17:56:35;;;;;;;0.93;0.93;;;;;;;-146.24;100.00;46967.31;5071094;28;20233;-86
2023/01/19 17:59:09;;;;;;;0.47;0.47;;;;;;;-146.24;100.00;46944.28;5070023;28;21247;-89
2023/01/19 18:01:47;;;;;;;5.10;0.40;;;;;;;-146.24;100.00;46967.31;5069981;28;20227;-88
2023/01/19 18:04:16;;;;;;;0.47;0.47;;;;;;;-146.24;100.00;46932.78;5069846;28;20233;-87
2023/01/19 18:06:58;;;;;;;0.50;0.50;;;;;;;-146.24;100.00;46925.09;5069180;28;20244;-87
2023/01/19 18:09:31;;;;;;;0.93;0.30;;;;;;;-146.24;100.00;46938.53;5069921;28;20218;-85
2023/01/19 18:12:00;;;;;;;0.63;0.63;;;;;;;-146.24;100.00;46946.19;5069971;28;20219;-86
2023/01/19 18:14:29;;;;;;;0.10;0.10;;;;;;;-146.24;100.00;46942.38;5070746;28;20214;-85
2023/01/19 18:16:57;;;;;;;0.53;0.33;;;;;;;-146.24;100.00;46936.59;5075474;28;20238;-87
2023/01/19 18:19:25;;;;;;;2.80;0.93;;;;;;;-146.24;100.00;46944.28;5077792;28;20255;-87
2023/01/19 18:21:56;;;;;;;0.27;0.27;;;;;;;-146.24;100.00;46940.44;5081833;28;20226;-87
2023/01/19 18:24:24;;;;;;;1.80;1.30;;;;;;;-146.24;100.00;46925.09;5078944;28;20224;-85
2023/01/19 18:26:52;;;;;;;0.20;0.20;;;;;;;-146.24;100.00;46948.13;5073465;28;20233;-87
2023/01/19 18:29:22;;;;;;;1.00;1.00;;;;;;;-146.24;100.00;46953.88;5073700;28;20218;-87
2023/01/19 18:31:55;;;;;;;0.37;0.37;;;;;;;-146.24;100.00;46930.84;5069555;28;20361;-87
2023/01/19 18:34:26;;;;;;;0.33;0.33;;;;;;;-146.24;100.00;46971.16;5070071;28;20284;-87
2023/01/19 18:36:53;;;;;;;0.30;0.30;;;;;;;-146.24;100.00;46911.66;5070800;28;20268;-85
2023/01/19 18:39:23;;;;;;;0.23;0.23;;;;;;;-146.24;100.00;46936.59;5074890;28;20222;-86
2023/01/19 18:41:52;;;;;;;0.80;0.77;;;;;;;-146.24;100.00;46948.13;5074818;28;20703;-85
2023/01/19 18:44:22;;;;;;;0.00;0.00;;;;;;;-146.24;100.00;46923.19;5070991;28;20306;-86
2023/01/19 18:46:50;;;;;;;2.03;0.20;;;;;;;-146.24;100.00;46913.59;5070144;28;20237;-86
2023/01/19 18:49:20;;;;;;;0.40;0.40;;;;;;;-146.24;100.00;46917.41;5067068;28;20258;-85
2023/01/19 18:51:48;;;;;;;0.00;0.00;;;;;;;-146.24;100.00;46948.13;5069436;28;20503;-84
2023/01/19 18:54:19;;;;;;;0.10;0.10;;;;;;;-146.24;100.00;46917.41;5067793;28;20280;-86
2023/01/19 18:56:51;;;;;;;0.00;0.00;;;;;;;-146.24;100.00;46988.41;5069918;28;20242;-85
2023/01/19 18:59:21;;;;;;;0.00;0.00;;;;;;;-146.24;100.00;46932.78;5070624;28;20223;-86
2023/01/19 19:01:49;;;;;;;0.00;0.00;;;;;;;-146.24;100.00;46909.75;5069518;28;20230;-86
2023/01/19 19:04:19;;;;;;;0.57;0.57;;;;;;;-146.25;100.00;57403.91;5071351;28;20230;-86
2023/01/19 19:06:47;;;;;;;0.10;0.10;;;;;;;-146.25;100.00;57403.91;5069621;28;20233;-87
2023/01/19 19:09:15;;;;;;;0.00;0.00;;;;;;;-146.25;100.00;57403.91;5068250;28;20460;-85
2023/01/19 19:11:42;;;;;;;0.10;0.10;;;;;;;-146.25;100.00;57403.91;5069068;28;20248;-86
2023/01/19 19:14:18;;;;;;;0.00;0.00;;;;;;;-146.24;100.00;46951.97;5066337;28;20234;-84
2023/01/19 19:16:48;;;;;;;0.00;0.00;;;;;;;-146.25;100.00;57403.91;5068708;28;20269;-87
2023/01/19 19:19:15;;;;;;;0.00;0.00;;;;;;;-146.25;100.00;57403.91;5069417;28;20330;-85
2023/01/19 19:21:44;;;;;;;0.17;0.17;;;;;;;-146.25;100.00;57403.91;5069452;28;20729;-85
2023/01/19 19:24:15;;;;;;;0.00;0.00;;;;;;;-146.25;100.00;57403.91;5064541;28;20699;-86
2023/01/19 19:26:47;;;;;;;0.00;0.00;;;;;;;-146.25;100.00;57403.91;5070657;28;20742;-85
2023/01/19 19:29:22;;;;;;;0.00;0.00;;;;;;;-146.25;100.00;57403.91;5072630;28;20214;-85
2023/01/19 19:32:12;;;;;;;0.40;0.40;;;;;;;-146.25;100.00;57403.91;5069667;28;20214;-87
2023/01/19 19:34:42;;;;;;;0.10;0.10;;;;;;;-146.25;100.00;57403.91;5069611;28;20305;-87
2023/01/19 19:37:11;;;;;;;0.93;0.40;;;;;;;-146.25;100.00;57403.91;5073791;28;20238;-86
2023/01/19 19:39:40;;;;;;;0.00;0.00;;;;;;;-146.25;100.00;57403.91;5074269;28;20292;-87
2023/01/19 19:42:08;;;;;;;0.00;0.00;;;;;;;-146.25;100.00;57403.91;5069815;28;20234;-87
2023/01/19 19:44:44;;;;;;;0.00;0.00;;;;;;;-146.25;100.00;57403.91;5068952;28;20250;-86
2023/01/19 19:47:14;;;;;;;0.60;0.07;;;;;;;-146.25;100.00;57403.91;5069489;28;20283;-87
2023/01/19 19:49:41;;;;;;;0.10;0.10;;;;;;;-146.25;100.00;57403.91;5069556;28;20760;-86
2023/01/19 19:52:10;;;;;;;0.03;0.03;;;;;;;-146.25;100.00;57403.91;5069710;28;20783;-88
2023/01/19 19:54:44;;;;;;;0.00;0.00;;;;;;;-146.25;100.00;57403.91;5070880;28;20535;-86
2023/01/19 19:57:12;;;;;;;0.00;0.00;;;;;;;-146.25;100.00;57403.91;5069060;28;20241;-86
2023/01/19 19:59:42;;;;;;;0.00;0.00;;;;;;;-146.25;100.00;57403.91;5068277;28;20222;-86
2023/01/19 20:02:19;;;;;;;0.00;0.00;;;;;;;-146.25;100.00;57403.91;5071248;28;20911;-86
2023/01/19 20:04:48;;;;;;;0.00;0.00;;;;;;;-146.25;100.00;57403.91;5069099;28;20222;-86
2023/01/19 20:07:15;;;;;;;0.10;0.10;;;;;;;-146.25;100.00;57403.91;5068225;28;20453;-86
2023/01/19 20:09:44;;;;;;;0.53;0.53;;;;;;;-146.25;100.00;57403.91;5070505;28;20225;-86
2023/01/19 20:12:11;;;;;;;0.00;0.00;;;;;;;-146.25;100.00;57403.91;5069260;28;20725;-86
2023/01/19 20:14:46;;;;;;;0.50;0.50;;;;;;;-146.25;100.00;57403.91;5068281;28;20621;-86
2023/01/19 20:17:23;;;;;;;0.27;0.27;;;;;;;-146.25;100.00;57403.91;5068076;28;20249;-86
2023/01/19 20:19:53;;;;;;;0.00;0.00;;;;;;;-146.25;100.00;57403.91;5068489;28;20303;-88
2023/01/19 20:22:30;;;;;;;0.00;0.00;;;;;;;-146.25;100.00;57403.91;5072391;28;20230;-87
2023/01/19 20:25:24;;;;;;;0.00;0.00;;;;;;;-146.25;100.00;57403.91;5075049;28;20593;-87
2023/01/19 20:27:53;;;;;;;0.00;0.00;;;;;;;-146.25;100.00;57403.91;5077351;28;20647;-87
2023/01/19 20:31:03;;;;;;;0.00;0.00;;;;;;;-146.25;100.00;57403.91;5075176;28;20282;-88
2023/01/19 20:36:54;;;;;;;0.00;0.00;;;;;;;-146.25;100.00;57403.91;5032616;28;20230;-89
2023/01/19 20:39:25;;;;;;;0.20;0.20;;;;;;;-146.25;100.00;57403.91;5073101;28;20245;-87
2023/01/19 20:42:09;;;;;;;3.27;0.23;;;;;;;-146.25;100.00;57403.91;5071584;28;20321;-87
2023/01/19 20:44:55;;;;;;;0.10;0.10;;;;;;;-146.25;100.00;57403.91;5080399;28;20305;-88
2023/01/19 20:47:31;;;;;;;0.00;0.00;;;;;;;-146.25;100.00;57403.91;5076908;28;20226;-87
2023/01/19 20:50:05;;;;;;;1.70;0.30;;;;;;;-146.25;100.00;57403.91;5072510;28;20222;-88
2023/01/19 20:55:29;;;;;;;0.00;0.00;;;;;;;-146.25;100.00;57403.91;5071939;28;20226;-88
2023/01/19 20:58:02;;;;;;;0.00;0.00;;;;;;;-146.25;100.00;57403.91;5072637;28;20300;-89
2023/01/19 21:00:48;;;;;;;0.00;0.00;;;;;;;-146.25;100.00;57403.91;5073273;28;20219;-89
2023/01/19 21:03:35;;;;;;;0.10;0.10;;;;;;;-146.25;100.00;57403.91;5073076;28;20236;-89
2023/01/19 21:06:21;;;;;;;0.13;0.13;;;;;;;-146.25;100.00;57403.91;5077489;28;20226;-90
2023/01/19 21:08:57;;;;;;;0.70;0.70;;;;;;;-146.25;100.00;57403.91;5073666;28;20227;-88
2023/01/19 21:11:36;;;;;;;0.00;0.00;;;;;;;-146.25;100.00;57403.91;5076063;28;20286;-89
2023/01/19 21:16:57;;;;;;;0.53;0.50;;;;;;;-146.25;100.00;57403.91;5073661;28;20703;-89
2023/01/19 21:19:41;;;;;;;0.00;0.00;;;;;;;-146.25;100.00;57403.91;5074071;28;20202;-89
2023/01/19 21:22:23;;;;;;;0.00;0.00;;;;;;;-146.25;100.00;57403.91;5074645;28;20218;-89
2023/01/19 21:25:00;;;;;;;0.30;0.30;;;;;;;-146.25;100.00;57403.91;5051968;28;20733;-88
2023/01/19 21:28:06;;;;;;;0.50;0.50;;;;;;;-146.25;100.00;57403.91;5052323;28;20763;-89
2023/01/19 21:30:48;;;;;;;1.37;0.63;;;;;;;-146.25;100.00;57403.91;5040057;28;20227;-90
2023/01/19 21:33:33;;;;;;;0.10;0.10;;;;;;;-146.25;100.00;57403.91;5050779;28;20238;-88
2023/01/19 21:36:14;;;;;;;0.10;0.10;;;;;;;-146.25;100.00;57403.91;5050777;28;20804;-90
2023/01/19 21:39:04;;;;;;;2.37;0.30;;;;;;;-146.25;100.00;57403.91;5050571;28;20325;-89
2023/01/19 21:41:52;;;;;;;;;;;;;;;;;;;;;
2023/01/19 21:44:46;;;;;;;0.77;0.77;;;;;;;-146.25;100.00;57403.91;5050899;28;20231;-89
2023/01/19 21:47:16;;;;;;;0.13;0.13;;;;;;;-146.25;100.00;57403.91;5051955;28;20235;-90
2023/01/19 21:49:58;;;;;;;1.40;0.50;;;;;;;-146.25;100.00;57403.91;5054121;28;20243;-90
2023/01/19 21:52:30;;;;;;;0.27;0.27;;;;;;;-146.25;100.00;57403.91;5056289;28;20298;-90
2023/01/19 21:55:32;;;;;;;0.00;0.00;;;;;;;-146.25;100.00;57403.91;5053289;28;20365;-90
2023/01/19 21:58:06;;;;;;;0.20;0.07;;;;;;;-146.25;100.00;57403.91;5054411;28;20320;-89
2023/01/19 22:00:47;;;;;;;0.00;0.00;;;;;;;-146.25;100.00;57403.91;5056018;28;20215;-89
2023/01/19 22:03:19;;;;;;;0.00;0.00;;;;;;;-146.25;100.00;57403.91;5053789;28;20249;-89
2023/01/19 22:06:03;;;;;;;0.00;0.00;;;;;;;-146.25;100.00;57403.91;5051984;28;20253;-89
2023/01/19 22:08:35;;;;;;;0.10;0.10;;;;;;;-146.25;100.00;57403.91;5051804;28;20715;-88
2023/01/19 22:11:29;;;;;;;0.30;0.30;;;;;;;-146.25;100.00;57403.91;5051942;28;20440;-88
2023/01/19 22:13:59;;;;;;;0.33;0.20;;;;;;;-146.25;100.00;57403.91;5051854;28;20683;-89
2023/01/19 22:16:28;;;;;;;0.13;0.10;;;;;;;-146.25;100.00;57403.91;5061186;28;20230;-90
2023/01/19 22:19:06;;;;;;;0.07;0.07;;;;;;;-146.25;100.00;57403.91;5067716;28;20234;-89
2023/01/19 22:21:39;;;;;;;0.10;0.10;;;;;;;-146.25;100.00;57403.91;5071764;28;20298;-89
2023/01/19 22:24:09;;;;;;;0.00;0.00;;;;;;;-146.25;100.00;57403.91;5070936;28;20795;-89
2023/01/19 22:26:40;;;;;;;0.33;0.20;;;;;;;-146.25;100.00;57403.91;5070575;28;20680;-89
2023/01/19 22:29:14;;;;;;;0.10;0.10;;;;;;;-146.25;100.00;57403.91;5069893;28;20214;-89
2023/01/19 22:31:44;;;;;;;0.10;0.10;;;;;;;-146.25;100.00;57403.91;5070997;28;20252;-87
2023/01/19 22:34:13;;;;;;;0.10;0.10;;;;;;;-146.25;100.00;57403.91;5069794;28;20218;-89
2023/01/19 22:36:53;;;;;;;0.07;0.07;;;;;;;-146.25;100.00;57403.91;5070218;28;20239;-88
2023/01/19 22:39:23;;;;;;;0.20;0.20;;;;;;;-146.25;100.00;57403.91;5070132;28;20229;-89
2023/01/19 22:42:36;;;;;;;0.03;0.03;;;;;;;-146.25;100.00;57403.91;5069932;28;20223;-88
2023/01/19 22:45:08;;;;;;;0.10;0.10;;;;;;;-146.25;100.00;57403.91;5068120;28;20716;-89
2023/01/19 22:48:04;;;;;;;0.10;0.10;;;;;;;-146.25;100.00;57403.91;5059742;28;20218;-88
2023/01/19 22:50:37;;;;;;;0.27;0.27;;;;;;;-146.25;100.00;57403.91;5069845;28;20313;-89
2023/01/19 22:53:15;;;;;;;0.60;0.60;;;;;;;-146.25;100.00;57403.91;5062946;28;20218;-88
2023/01/19 22:55:49;;;;;;;0.63;0.63;;;;;;;-146.25;100.00;57403.91;5068138;28;20285;-88
2023/01/19 22:58:20;;;;;;;0.10;0.10;;;;;;;-146.25;100.00;57403.91;5072050;28;20230;-88
2023/01/19 23:00:54;;;;;;;0.70;0.53;;;;;;;-146.25;100.00;57403.91;5061123;28;20214;-88
2023/01/19 23:03:46;;;;;;;0.50;0.50;;;;;;;-146.25;100.00;57403.91;5073526;28;20252;-88
2023/01/19 23:06:20;;;;;;;0.30;0.30;;;;;;;-146.25;100.00;57403.91;5070843;28;20222;-88
2023/01/19 23:09:01;;;;;;;0.97;0.97;;;;;;;-146.25;100.00;57403.91;5069046;28;20572;-88
2023/01/19 23:11:49;;;;;;;1.13;1.03;;;;;;;-146.25;100.00;57403.91;5069718;28;20218;-88
2023/01/19 23:14:36;;;;;;;0.37;0.37;;;;;;;-146.25;100.00;57403.91;5069583;28;20207;-87
2023/01/19 23:17:08;;;;;;;0.33;0.30;;;;;;;-146.25;100.00;57403.91;5070079;28;20230;-87
2023/01/19 23:19:37;;;;;;;0.07;0.07;;;;;;;-146.25;100.00;57403.91;5070183;28;20222;-85
2023/01/19 23:22:07;;;;;;;0.30;0.20;;;;;;;-146.25;100.00;57403.91;5070364;28;20211;-87
2023/01/19 23:24:46;;;;;;;0.23;0.23;;;;;;;-146.25;100.00;57403.91;5071677;28;20205;-86
2023/01/19 23:27:14;;;;;;;4.13;2.00;;;;;;;-146.25;100.00;57403.91;5053210;28;20191;-86
2023/01/19 23:29:45;;;;;;;0.77;0.17;;;;;;;-146.25;100.00;57403.91;5055538;28;20203;-88
2023/01/19 23:32:14;;;;;;;0.00;0.00;;;;;;;-146.25;100.00;57403.91;5051396;28;20663;-87
2023/01/19 23:34:43;;;;;;;0.00;0.00;;;;;;;-146.25;100.00;57403.91;5049925;28;20616;-87
2023/01/19 23:37:11;;;;;;;0.00;0.00;;;;;;;-146.25;100.00;57403.91;5050675;28;20243;-87
2023/01/19 23:39:42;;;;;;;0.10;0.10;;;;;;;-146.25;100.00;57403.91;5051397;28;20234;-90
2023/01/19 23:42:10;;;;;;;0.00;0.00;;;;;;;-146.25;100.00;57403.91;5049602;28;20307;-89
2023/01/19 23:44:38;;;;;;;0.40;0.40;;;;;;;-146.25;100.00;57403.91;5051884;28;20203;-86
2023/01/19 23:47:09;;;;;;;0.00;0.00;;;;;;;-146.25;100.00;57403.91;5054861;28;20195;-90
2023/01/19 23:49:38;;;;;;;0.00;0.00;;;;;;;-146.25;100.00;57403.91;5076066;28;20225;-89
2023/01/19 23:52:06;;;;;;;0.00;0.00;;;;;;;-146.25;100.00;57403.91;5076162;28;20509;-91
2023/01/19 23:54:35;;;;;;;0.00;0.00;;;;;;;-146.25;100.00;57403.91;5072346;28;20610;-90
2023/01/19 23:57:04;;;;;;;0.00;0.00;;;;;;;-146.25;100.00;57403.91;5071829;28;20206;-92
2023/01/19 23:59:32;;;;;;;1.70;0.87;;;;;;;-146.25;100.00;57403.91;5075130;28;20230;-91
